createdAt,value
2019-01-06T00:00:37.603Z,1019.29
2019-01-06T00:01:37.627Z,1019.34
2019-01-06T00:02:37.558Z,1019.29
2019-01-06T00:03:37.584Z,1019.30
2019-01-06T00:04:37.540Z,1019.30
2019-01-06T00:05:37.526Z,1019.33
2019-01-06T00:06:38.472Z,1019.31
2019-01-06T00:07:37.632Z,1019.32
2019-01-06T00:08:37.538Z,1019.33
2019-01-06T00:09:39.490Z,1019.30
2019-01-06T00:10:37.473Z,1019.30
2019-01-06T00:11:37.470Z,1019.29
2019-01-06T00:12:37.453Z,1019.27
2019-01-06T00:13:37.448Z,1019.34
2019-01-06T00:14:37.475Z,1019.40
2019-01-06T00:15:37.428Z,1019.39
2019-01-06T00:16:37.415Z,1019.37
2019-01-06T00:17:37.399Z,1019.39
2019-01-06T00:18:37.407Z,1019.36
2019-01-06T00:20:33.248Z,1019.34
2019-01-06T00:21:33.213Z,1019.38
2019-01-06T00:22:33.207Z,1019.40
2019-01-06T00:23:33.190Z,1019.42
2019-01-06T00:24:33.184Z,1019.38
2019-01-06T00:25:33.198Z,1019.42
2019-01-06T00:26:33.169Z,1019.39
2019-01-06T00:27:33.157Z,1019.47
2019-01-06T00:28:33.157Z,1019.44
2019-01-06T00:29:33.142Z,1019.44
2019-01-06T00:30:33.146Z,1019.46
2019-01-06T00:31:33.178Z,1019.46
2019-01-06T00:32:33.108Z,1019.46
2019-01-06T00:33:33.086Z,1019.52
2019-01-06T00:34:33.080Z,1019.48
2019-01-06T00:35:33.088Z,1019.44
2019-01-06T00:36:33.052Z,1019.47
2019-01-06T00:37:33.048Z,1019.48
2019-01-06T00:38:33.045Z,1019.50
2019-01-06T00:39:33.026Z,1019.54
2019-01-06T00:40:33.033Z,1019.53
2019-01-06T00:41:33.028Z,1019.54
2019-01-06T00:42:32.986Z,1019.55
2019-01-06T00:43:32.985Z,1019.57
2019-01-06T00:44:32.971Z,1019.57
2019-01-06T00:45:32.978Z,1019.60
2019-01-06T00:46:32.941Z,1019.57
2019-01-06T00:47:32.956Z,1019.59
2019-01-06T00:48:32.929Z,1019.58
2019-01-06T00:49:32.917Z,1019.59
2019-01-06T00:50:32.911Z,1019.60
2019-01-06T00:51:32.904Z,1019.65
2019-01-06T00:52:32.910Z,1019.67
2019-01-06T00:53:32.865Z,1019.66
2019-01-06T00:54:32.857Z,1019.66
2019-01-06T00:55:32.849Z,1019.67
2019-01-06T00:56:32.858Z,1019.64
2019-01-06T00:57:32.853Z,1019.66
2019-01-06T00:58:32.820Z,1019.69
2019-01-06T00:59:32.804Z,1019.70
2019-01-06T01:00:32.791Z,1019.72
2019-01-06T01:01:32.789Z,1019.76
2019-01-06T01:02:32.804Z,1019.70
2019-01-06T01:03:32.788Z,1019.72
2019-01-06T01:04:32.753Z,1019.72
2019-01-06T01:05:32.738Z,1019.73
2019-01-06T01:06:32.729Z,1019.79
2019-01-06T01:07:32.742Z,1019.80
2019-01-06T01:08:32.705Z,1019.73
2019-01-06T01:09:32.709Z,1019.73
2019-01-06T01:10:32.689Z,1019.75
2019-01-06T01:11:32.681Z,1019.72
2019-01-06T01:12:32.693Z,1019.72
2019-01-06T01:13:32.656Z,1019.72
2019-01-06T01:14:32.667Z,1019.71
2019-01-06T01:15:32.639Z,1019.68
2019-01-06T01:16:32.627Z,1019.69
2019-01-06T01:17:32.618Z,1019.70
2019-01-06T01:18:32.628Z,1019.69
2019-01-06T01:19:32.596Z,1019.69
2019-01-06T01:20:32.616Z,1019.74
2019-01-06T01:21:32.576Z,1019.68
2019-01-06T01:22:32.562Z,1019.71
2019-01-06T01:23:32.613Z,1019.71
2019-01-06T01:24:33.393Z,1019.71
2019-01-06T01:25:34.408Z,1019.74
2019-01-06T01:26:34.414Z,1019.71
2019-01-06T01:27:32.572Z,1019.74
2019-01-06T01:28:32.920Z,1019.73
2019-01-06T01:29:32.489Z,1019.78
2019-01-06T01:30:33.509Z,1019.75
2019-01-06T01:31:32.607Z,1019.76
2019-01-06T01:32:32.464Z,1019.83
2019-01-06T01:33:32.454Z,1019.75
2019-01-06T01:34:32.518Z,1019.79
2019-01-06T01:35:34.399Z,1019.76
2019-01-06T01:36:32.419Z,1019.82
2019-01-06T01:37:32.400Z,1019.78
2019-01-06T01:38:32.400Z,1019.84
2019-01-06T01:39:32.446Z,1019.81
2019-01-06T01:40:32.426Z,1019.82
2019-01-06T01:41:32.392Z,1019.85
2019-01-06T01:42:32.396Z,1019.84
2019-01-06T01:43:32.356Z,1019.87
2019-01-06T01:44:32.364Z,1019.86
2019-01-06T01:45:32.315Z,1019.86
2019-01-06T01:46:32.358Z,1019.85
2019-01-06T01:47:32.309Z,1019.90
2019-01-06T01:48:32.301Z,1019.90
2019-01-06T01:49:32.275Z,1019.89
2019-01-06T01:50:32.271Z,1019.90
2019-01-06T01:51:32.275Z,1019.91
2019-01-06T01:52:32.261Z,1019.90
2019-01-06T01:53:32.264Z,1019.87
2019-01-06T01:54:32.245Z,1019.91
2019-01-06T01:55:32.243Z,1019.91
2019-01-06T01:56:32.215Z,1019.88
2019-01-06T01:57:32.189Z,1019.93
2019-01-06T01:58:32.196Z,1019.88
2019-01-06T01:59:32.196Z,1019.93
2019-01-06T02:00:32.174Z,1019.90
2019-01-06T02:01:32.171Z,1019.93
2019-01-06T02:02:32.186Z,1019.90
2019-01-06T02:03:32.119Z,1019.94
2019-01-06T02:04:32.108Z,1019.93
2019-01-06T02:05:32.102Z,1019.95
2019-01-06T02:06:32.123Z,1019.95
2019-01-06T02:07:32.088Z,1019.96
2019-01-06T02:08:32.078Z,1019.97
2019-01-06T02:09:32.051Z,1019.98
2019-01-06T02:10:32.041Z,1020.01
2019-01-06T02:11:32.042Z,1020.01
2019-01-06T02:12:32.054Z,1020.07
2019-01-06T02:13:32.112Z,1020.12
2019-01-06T02:14:32.014Z,1020.11
2019-01-06T02:15:32.031Z,1020.12
2019-01-06T02:16:31.997Z,1020.18
2019-01-06T02:17:31.983Z,1020.19
2019-01-06T02:18:31.994Z,1020.24
2019-01-06T02:19:31.974Z,1020.23
2019-01-06T02:20:31.949Z,1020.28
2019-01-06T02:21:31.939Z,1020.26
2019-01-06T02:22:31.919Z,1020.30
2019-01-06T02:23:31.909Z,1020.28
2019-01-06T02:24:31.920Z,1020.25
2019-01-06T02:25:31.931Z,1020.25
2019-01-06T02:26:31.887Z,1020.28
2019-01-06T02:27:31.933Z,1020.30
2019-01-06T02:28:31.858Z,1020.28
2019-01-06T02:29:31.850Z,1020.28
2019-01-06T02:30:31.837Z,1020.30
2019-01-06T02:31:31.922Z,1020.27
2019-01-06T02:32:31.815Z,1020.29
2019-01-06T02:33:31.846Z,1020.29
2019-01-06T02:34:31.799Z,1020.31
2019-01-06T02:35:31.791Z,1020.28
2019-01-06T02:36:32.393Z,1020.30
2019-01-06T02:37:31.815Z,1020.24
2019-01-06T02:38:31.768Z,1020.23
2019-01-06T02:39:31.744Z,1020.23
2019-01-06T02:40:31.733Z,1020.22
2019-01-06T02:41:31.722Z,1020.25
2019-01-06T02:42:31.736Z,1020.29
2019-01-06T02:43:31.721Z,1020.23
2019-01-06T02:44:31.699Z,1020.27
2019-01-06T02:45:31.681Z,1020.31
2019-01-06T02:46:31.663Z,1020.27
2019-01-06T02:47:31.663Z,1020.23
2019-01-06T02:48:31.672Z,1020.20
2019-01-06T02:49:31.631Z,1020.17
2019-01-06T02:50:31.621Z,1020.18
2019-01-06T02:51:31.608Z,1020.21
2019-01-06T02:52:31.616Z,1020.20
2019-01-06T02:53:31.585Z,1020.22
2019-01-06T02:54:31.603Z,1020.27
2019-01-06T02:55:31.565Z,1020.26
2019-01-06T02:56:31.569Z,1020.30
2019-01-06T02:57:31.557Z,1020.33
2019-01-06T02:58:31.540Z,1020.33
2019-01-06T02:59:31.531Z,1020.44
2019-01-06T03:00:31.544Z,1020.38
2019-01-06T03:01:31.498Z,1020.42
2019-01-06T03:02:31.487Z,1020.44
2019-01-06T03:03:31.481Z,1020.49
2019-01-06T03:04:31.465Z,1020.46
2019-01-06T03:05:31.486Z,1020.48
2019-01-06T03:06:31.451Z,1020.47
2019-01-06T03:07:31.445Z,1020.46
2019-01-06T03:08:31.427Z,1020.43
2019-01-06T03:09:31.423Z,1020.44
2019-01-06T03:10:31.431Z,1020.47
2019-01-06T03:11:31.401Z,1020.47
2019-01-06T03:12:31.390Z,1020.50
2019-01-06T03:13:37.885Z,1020.56
2019-01-06T03:14:31.382Z,1020.58
2019-01-06T03:15:31.397Z,1020.57
2019-01-06T03:16:31.364Z,1020.53
2019-01-06T03:17:31.343Z,1020.53
2019-01-06T03:18:31.326Z,1020.55
2019-01-06T03:19:31.422Z,1020.56
2019-01-06T03:20:31.322Z,1020.56
2019-01-06T03:21:31.329Z,1020.54
2019-01-06T03:22:31.283Z,1020.57
2019-01-06T03:23:31.274Z,1020.58
2019-01-06T03:24:31.269Z,1020.56
2019-01-06T03:25:31.244Z,1020.53
2019-01-06T03:26:31.269Z,1020.55
2019-01-06T03:27:31.231Z,1020.53
2019-01-06T03:28:31.230Z,1020.51
2019-01-06T03:29:31.235Z,1020.54
2019-01-06T03:30:31.208Z,1020.55
2019-01-06T03:31:31.231Z,1020.51
2019-01-06T03:32:31.193Z,1020.51
2019-01-06T03:33:31.170Z,1020.52
2019-01-06T03:34:31.160Z,1020.55
2019-01-06T03:35:31.143Z,1020.57
2019-01-06T03:36:31.141Z,1020.54
2019-01-06T03:37:31.168Z,1020.55
2019-01-06T03:38:31.115Z,1020.55
2019-01-06T03:39:31.131Z,1020.55
2019-01-06T03:40:31.095Z,1020.58
2019-01-06T03:41:31.082Z,1020.57
2019-01-06T03:42:31.078Z,1020.65
2019-01-06T03:43:31.092Z,1020.63
2019-01-06T03:44:31.069Z,1020.57
2019-01-06T03:45:31.054Z,1020.62
2019-01-06T03:46:31.023Z,1020.65
2019-01-06T03:47:31.016Z,1020.59
2019-01-06T03:48:31.043Z,1020.58
2019-01-06T03:49:31.005Z,1020.58
2019-01-06T03:50:30.996Z,1020.52
2019-01-06T03:51:30.979Z,1020.56
2019-01-06T03:52:30.983Z,1020.56
2019-01-06T03:53:30.962Z,1020.60
2019-01-06T03:54:30.967Z,1020.63
2019-01-06T03:55:30.948Z,1020.62
2019-01-06T03:56:30.929Z,1020.58
2019-01-06T03:57:30.904Z,1020.61
2019-01-06T03:58:30.926Z,1020.64
2019-01-06T03:59:30.889Z,1020.67
2019-01-06T04:00:30.878Z,1020.72
2019-01-06T04:01:30.869Z,1020.72
2019-01-06T04:02:30.865Z,1020.69
2019-01-06T04:03:30.884Z,1020.69
2019-01-06T04:04:30.855Z,1020.71
2019-01-06T04:05:30.823Z,1020.72
2019-01-06T04:06:30.816Z,1020.71
2019-01-06T04:07:30.799Z,1020.68
2019-01-06T04:08:30.794Z,1020.63
2019-01-06T04:09:30.826Z,1020.66
2019-01-06T04:10:30.799Z,1020.62
2019-01-06T04:11:30.764Z,1020.68
2019-01-06T04:12:30.762Z,1020.62
2019-01-06T04:13:30.746Z,1020.66
2019-01-06T04:14:30.730Z,1020.67
2019-01-06T04:15:30.754Z,1020.68
2019-01-06T04:16:30.712Z,1020.70
2019-01-06T04:17:30.695Z,1020.70
2019-01-06T04:18:30.681Z,1020.69
2019-01-06T04:19:30.674Z,1020.69
2019-01-06T04:20:30.666Z,1020.69
2019-01-06T04:21:30.685Z,1020.67
2019-01-06T04:22:30.643Z,1020.65
2019-01-06T04:23:30.635Z,1020.69
2019-01-06T04:24:30.626Z,1020.70
2019-01-06T04:25:30.647Z,1020.72
2019-01-06T04:26:30.600Z,1020.68
2019-01-06T04:27:30.617Z,1020.67
2019-01-06T04:28:30.584Z,1020.68
2019-01-06T04:29:30.561Z,1020.70
2019-01-06T04:30:30.553Z,1020.73
2019-01-06T04:31:30.560Z,1020.70
2019-01-06T04:32:30.565Z,1020.73
2019-01-06T04:33:30.523Z,1020.73
2019-01-06T04:34:30.524Z,1020.73
2019-01-06T04:35:30.518Z,1020.75
2019-01-06T04:36:30.498Z,1020.73
2019-01-06T04:37:30.512Z,1020.69
2019-01-06T04:38:30.498Z,1020.69
2019-01-06T04:39:30.461Z,1020.70
2019-01-06T04:40:30.454Z,1020.75
2019-01-06T04:41:30.433Z,1020.76
2019-01-06T04:42:30.430Z,1020.74
2019-01-06T04:43:30.518Z,1020.73
2019-01-06T04:44:30.416Z,1020.73
2019-01-06T04:45:30.387Z,1020.71
2019-01-06T04:46:30.389Z,1020.77
2019-01-06T04:47:30.373Z,1020.73
2019-01-06T04:48:30.390Z,1020.70
2019-01-06T04:49:30.357Z,1020.68
2019-01-06T04:50:30.366Z,1020.68
2019-01-06T04:51:30.333Z,1020.71
2019-01-06T04:52:30.319Z,1020.76
2019-01-06T04:53:30.309Z,1020.77
2019-01-06T04:54:30.334Z,1020.77
2019-01-06T04:55:30.294Z,1020.77
2019-01-06T04:56:30.277Z,1020.80
2019-01-06T04:57:30.270Z,1020.80
2019-01-06T04:58:30.267Z,1020.81
2019-01-06T04:59:30.242Z,1020.82
2019-01-06T05:00:30.249Z,1020.83
2019-01-06T05:01:30.242Z,1020.86
2019-01-06T05:02:30.209Z,1020.87
2019-01-06T05:03:30.207Z,1020.90
2019-01-06T05:04:30.191Z,1020.92
2019-01-06T05:05:30.211Z,1020.88
2019-01-06T05:06:30.159Z,1020.89
2019-01-06T05:07:30.153Z,1020.85
2019-01-06T05:08:30.147Z,1020.87
2019-01-06T05:09:30.160Z,1020.90
2019-01-06T05:10:30.131Z,1020.92
2019-01-06T05:11:30.186Z,1020.88
2019-01-06T05:12:30.106Z,1020.92
2019-01-06T05:13:30.102Z,1020.89
2019-01-06T05:14:30.104Z,1020.89
2019-01-06T05:15:30.070Z,1020.93
2019-01-06T05:16:30.096Z,1020.88
2019-01-06T05:17:30.049Z,1020.86
2019-01-06T05:18:30.050Z,1020.88
2019-01-06T05:19:30.026Z,1020.85
2019-01-06T05:20:30.008Z,1020.83
2019-01-06T05:21:30.012Z,1020.84
2019-01-06T05:22:30.028Z,1020.88
2019-01-06T05:23:29.985Z,1020.86
2019-01-06T05:24:30.071Z,1020.86
2019-01-06T05:25:29.957Z,1020.84
2019-01-06T05:26:29.943Z,1020.82
2019-01-06T05:27:29.941Z,1020.89
2019-01-06T05:28:29.960Z,1020.86
2019-01-06T05:29:29.946Z,1020.86
2019-01-06T05:30:29.920Z,1020.83
2019-01-06T05:31:29.897Z,1020.82
2019-01-06T05:32:29.899Z,1020.92
2019-01-06T05:33:29.899Z,1020.92
2019-01-06T05:34:29.878Z,1020.92
2019-01-06T05:35:29.888Z,1020.96
2019-01-06T05:36:29.843Z,1020.90
2019-01-06T05:37:29.835Z,1020.87
2019-01-06T05:38:29.820Z,1020.95
2019-01-06T05:39:29.802Z,1021.05
2019-01-06T05:40:29.793Z,1021.06
2019-01-06T05:41:29.809Z,1021.04
2019-01-06T05:42:29.782Z,1021.02
2019-01-06T05:43:29.787Z,1020.99
2019-01-06T05:44:29.802Z,1021.05
2019-01-06T05:45:29.749Z,1021.04
2019-01-06T05:46:29.734Z,1021.11
2019-01-06T05:47:29.734Z,1021.13
2019-01-06T05:48:29.724Z,1021.16
2019-01-06T05:49:29.698Z,1021.12
2019-01-06T05:50:29.711Z,1021.16
2019-01-06T05:51:29.713Z,1021.21
2019-01-06T05:52:29.666Z,1021.22
2019-01-06T05:53:29.674Z,1021.23
2019-01-06T05:54:29.653Z,1021.20
2019-01-06T05:55:29.645Z,1021.23
2019-01-06T05:56:29.627Z,1021.29
2019-01-06T05:57:29.644Z,1021.29
2019-01-06T05:58:29.600Z,1021.29
2019-01-06T05:59:29.598Z,1021.26
2019-01-06T06:00:29.578Z,1021.26
2019-01-06T06:01:29.577Z,1021.27
2019-01-06T06:02:29.586Z,1021.28
2019-01-06T06:03:29.556Z,1021.28
2019-01-06T06:04:29.536Z,1021.29
2019-01-06T06:05:29.550Z,1021.35
2019-01-06T06:06:29.524Z,1021.35
2019-01-06T06:07:29.944Z,1021.40
2019-01-06T06:08:29.541Z,1021.42
2019-01-06T06:09:29.497Z,1021.41
2019-01-06T06:10:29.473Z,1021.31
2019-01-06T06:11:29.462Z,1021.44
2019-01-06T06:12:29.457Z,1021.50
2019-01-06T06:13:29.475Z,1021.54
2019-01-06T06:14:29.430Z,1021.51
2019-01-06T06:15:29.424Z,1021.51
2019-01-06T06:16:29.420Z,1021.49
2019-01-06T06:17:29.397Z,1021.47
2019-01-06T06:18:29.386Z,1021.51
2019-01-06T06:19:29.449Z,1021.53
2019-01-06T06:20:37.902Z,1021.50
2019-01-06T06:21:29.349Z,1021.51
2019-01-06T06:22:29.383Z,1021.48
2019-01-06T06:23:29.332Z,1021.56
2019-01-06T06:24:29.330Z,1021.57
2019-01-06T06:25:29.333Z,1021.58
2019-01-06T06:26:29.296Z,1021.55
2019-01-06T06:27:29.280Z,1021.50
2019-01-06T06:28:29.267Z,1021.66
2019-01-06T06:29:29.283Z,1021.62
2019-01-06T06:30:29.248Z,1021.61
2019-01-06T06:31:29.241Z,1021.61
2019-01-06T06:32:29.230Z,1021.58
2019-01-06T06:33:29.216Z,1021.64
2019-01-06T06:34:29.224Z,1021.71
2019-01-06T06:35:29.199Z,1021.72
2019-01-06T06:36:29.218Z,1021.68
2019-01-06T06:37:29.174Z,1021.69
2019-01-06T06:38:29.165Z,1021.65
2019-01-06T06:39:29.148Z,1021.71
2019-01-06T06:40:29.138Z,1021.71
2019-01-06T06:41:29.153Z,1021.77
2019-01-06T06:42:29.137Z,1021.72
2019-01-06T06:43:29.112Z,1021.74
2019-01-06T06:44:29.102Z,1021.78
2019-01-06T06:45:29.119Z,1021.79
2019-01-06T06:46:29.134Z,1021.74
2019-01-06T06:47:29.068Z,1021.75
2019-01-06T06:48:29.053Z,1021.74
2019-01-06T06:49:29.046Z,1021.81
2019-01-06T06:50:29.077Z,1021.80
2019-01-06T06:51:29.018Z,1021.85
2019-01-06T06:52:29.038Z,1021.77
2019-01-06T06:53:28.998Z,1021.76
2019-01-06T06:54:28.984Z,1021.76
2019-01-06T06:55:28.982Z,1021.80
2019-01-06T06:56:28.979Z,1021.80
2019-01-06T06:57:28.963Z,1021.84
2019-01-06T06:58:28.983Z,1021.84
2019-01-06T06:59:28.945Z,1021.83
2019-01-06T07:00:28.921Z,1021.86
2019-01-06T07:01:28.910Z,1021.85
2019-01-06T07:02:28.901Z,1021.91
2019-01-06T07:03:28.896Z,1021.89
2019-01-06T07:04:28.904Z,1021.91
2019-01-06T07:05:28.869Z,1021.89
2019-01-06T07:06:28.888Z,1021.91
2019-01-06T07:07:28.851Z,1021.89
2019-01-06T07:08:28.842Z,1021.88
2019-01-06T07:09:28.836Z,1021.92
2019-01-06T07:10:28.823Z,1021.89
2019-01-06T07:11:28.804Z,1021.90
2019-01-06T07:12:28.823Z,1021.95
2019-01-06T07:13:28.779Z,1021.92
2019-01-06T07:14:28.775Z,1021.95
2019-01-06T07:15:28.793Z,1021.98
2019-01-06T07:16:28.764Z,1022.03
2019-01-06T07:17:28.779Z,1022.05
2019-01-06T07:18:28.741Z,1022.03
2019-01-06T07:19:28.714Z,1022.07
2019-01-06T07:20:28.779Z,1022.08
2019-01-06T07:21:28.699Z,1022.07
2019-01-06T07:22:28.692Z,1022.10
2019-01-06T07:23:28.700Z,1022.11
2019-01-06T07:24:28.662Z,1022.14
2019-01-06T07:25:28.679Z,1022.11
2019-01-06T07:26:28.691Z,1022.16
2019-01-06T07:27:28.666Z,1022.21
2019-01-06T07:28:28.627Z,1022.23
2019-01-06T07:29:28.616Z,1022.20
2019-01-06T07:30:28.615Z,1022.24
2019-01-06T07:31:28.587Z,1022.21
2019-01-06T07:32:28.578Z,1022.22
2019-01-06T07:33:28.592Z,1022.24
2019-01-06T07:34:28.588Z,1022.24
2019-01-06T07:35:28.551Z,1022.27
2019-01-06T07:36:28.539Z,1022.24
2019-01-06T07:37:28.519Z,1022.20
2019-01-06T07:38:28.544Z,1022.23
2019-01-06T07:39:28.508Z,1022.29
2019-01-06T07:40:28.496Z,1022.29
2019-01-06T07:41:28.486Z,1022.28
2019-01-06T07:42:28.497Z,1022.29
2019-01-06T07:43:28.458Z,1022.32
2019-01-06T07:44:28.488Z,1022.33
2019-01-06T07:45:28.435Z,1022.27
2019-01-06T07:46:28.427Z,1022.32
2019-01-06T07:47:28.430Z,1022.32
2019-01-06T07:48:28.417Z,1022.30
2019-01-06T07:49:28.395Z,1022.33
2019-01-06T07:50:28.409Z,1022.34
2019-01-06T07:51:28.371Z,1022.37
2019-01-06T07:52:28.360Z,1022.35
2019-01-06T07:53:28.361Z,1022.29
2019-01-06T07:54:28.346Z,1022.32
2019-01-06T07:55:28.360Z,1022.34
2019-01-06T07:56:28.318Z,1022.33
2019-01-06T07:57:28.306Z,1022.36
2019-01-06T07:58:28.317Z,1022.37
2019-01-06T07:59:28.306Z,1022.38
2019-01-06T08:00:28.285Z,1022.34
2019-01-06T08:01:28.294Z,1022.35
2019-01-06T08:02:28.262Z,1022.35
2019-01-06T08:03:28.330Z,1022.39
2019-01-06T08:04:28.234Z,1022.37
2019-01-06T08:05:28.227Z,1022.34
2019-01-06T08:06:28.241Z,1022.33
2019-01-06T08:07:28.208Z,1022.34
2019-01-06T08:08:28.200Z,1022.36
2019-01-06T08:09:28.184Z,1022.42
2019-01-06T08:10:28.168Z,1022.43
2019-01-06T08:11:28.187Z,1022.45
2019-01-06T08:12:28.178Z,1022.40
2019-01-06T08:13:28.144Z,1022.41
2019-01-06T08:14:28.131Z,1022.44
2019-01-06T08:15:28.116Z,1022.47
2019-01-06T08:16:28.129Z,1022.51
2019-01-06T08:17:28.108Z,1022.54
2019-01-06T08:18:28.120Z,1022.53
2019-01-06T08:19:28.079Z,1022.60
2019-01-06T08:20:28.080Z,1022.60
2019-01-06T08:21:28.059Z,1022.61
2019-01-06T08:22:28.050Z,1022.66
2019-01-06T08:23:28.047Z,1022.64
2019-01-06T08:24:28.044Z,1022.65
2019-01-06T08:25:28.017Z,1022.63
2019-01-06T08:26:28.006Z,1022.65
2019-01-06T08:27:27.990Z,1022.65
2019-01-06T08:28:27.998Z,1022.68
2019-01-06T08:29:27.989Z,1022.65
2019-01-06T08:30:27.958Z,1022.65
2019-01-06T08:31:27.953Z,1022.68
2019-01-06T08:32:27.942Z,1022.69
2019-01-06T08:33:27.934Z,1022.72
2019-01-06T08:34:27.925Z,1022.76
2019-01-06T08:35:27.925Z,1022.71
2019-01-06T08:36:27.894Z,1022.75
2019-01-06T08:37:27.882Z,1022.76
2019-01-06T08:38:27.872Z,1022.71
2019-01-06T08:39:27.869Z,1022.72
2019-01-06T08:40:27.880Z,1022.72
2019-01-06T08:41:27.842Z,1022.71
2019-01-06T08:42:27.833Z,1022.74
2019-01-06T08:43:27.825Z,1022.70
2019-01-06T08:44:27.816Z,1022.69
2019-01-06T08:45:27.826Z,1022.72
2019-01-06T08:46:27.818Z,1022.71
2019-01-06T08:47:27.777Z,1022.68
2019-01-06T08:48:27.767Z,1022.73
2019-01-06T08:49:27.753Z,1022.76
2019-01-06T08:50:27.745Z,1022.70
2019-01-06T08:51:27.763Z,1022.73
2019-01-06T08:52:27.731Z,1022.75
2019-01-06T08:53:27.721Z,1022.78
2019-01-06T08:54:27.709Z,1022.77
2019-01-06T08:55:27.690Z,1022.72
2019-01-06T08:56:27.701Z,1022.72
2019-01-06T08:57:27.698Z,1022.71
2019-01-06T08:58:27.665Z,1022.67
2019-01-06T08:59:27.670Z,1022.70
2019-01-06T09:00:27.639Z,1022.67
2019-01-06T09:01:27.653Z,1022.74
2019-01-06T09:02:27.683Z,1022.73
2019-01-06T09:03:27.614Z,1022.74
2019-01-06T09:04:27.616Z,1022.73
2019-01-06T09:05:27.612Z,1022.71
2019-01-06T09:06:27.582Z,1022.72
2019-01-06T09:07:27.593Z,1022.77
2019-01-06T09:08:27.556Z,1022.76
2019-01-06T09:09:27.546Z,1022.78
2019-01-06T09:10:27.553Z,1022.76
2019-01-06T09:11:27.537Z,1022.78
2019-01-06T09:12:27.519Z,1022.78
2019-01-06T09:13:27.548Z,1022.77
2019-01-06T09:14:27.493Z,1022.81
2019-01-06T09:15:27.544Z,1022.78
2019-01-06T09:16:27.486Z,1022.77
2019-01-06T09:17:27.465Z,1022.77
2019-01-06T09:18:27.452Z,1022.78
2019-01-06T09:19:27.437Z,1022.87
2019-01-06T09:20:27.432Z,1022.85
2019-01-06T09:21:27.437Z,1022.80
2019-01-06T09:22:27.433Z,1022.85
2019-01-06T09:23:27.427Z,1022.79
2019-01-06T09:24:27.388Z,1022.76
2019-01-06T09:25:27.377Z,1022.73
2019-01-06T09:26:27.369Z,1022.76
2019-01-06T09:27:27.357Z,1022.74
2019-01-06T09:28:27.360Z,1022.74
2019-01-06T09:29:27.335Z,1022.77
2019-01-06T09:30:27.330Z,1022.76
2019-01-06T09:31:27.329Z,1022.75
2019-01-06T09:32:27.298Z,1022.74
2019-01-06T09:33:27.295Z,1022.73
2019-01-06T09:34:27.284Z,1022.78
2019-01-06T09:35:27.279Z,1022.76
2019-01-06T09:36:27.301Z,1022.71
2019-01-06T09:37:27.262Z,1022.72
2019-01-06T09:38:27.238Z,1022.73
2019-01-06T09:39:27.244Z,1022.72
2019-01-06T09:40:27.219Z,1022.76
2019-01-06T09:41:27.205Z,1022.77
2019-01-06T09:42:27.222Z,1022.82
2019-01-06T09:43:27.191Z,1022.77
2019-01-06T09:44:27.259Z,1022.79
2019-01-06T09:45:27.165Z,1022.83
2019-01-06T09:46:27.148Z,1022.82
2019-01-06T09:47:27.162Z,1022.78
2019-01-06T09:48:27.132Z,1022.79
2019-01-06T09:49:27.144Z,1022.76
2019-01-06T09:50:27.118Z,1022.81
2019-01-06T09:51:27.123Z,1022.79
2019-01-06T09:52:27.082Z,1022.82
2019-01-06T09:53:27.099Z,1022.84
2019-01-06T09:54:27.085Z,1022.83
2019-01-06T09:55:27.061Z,1022.83
2019-01-06T09:56:27.049Z,1022.80
2019-01-06T09:57:27.036Z,1022.78
2019-01-06T09:58:27.031Z,1022.80
2019-01-06T09:59:27.038Z,1022.74
2019-01-06T10:00:26.998Z,1022.74
2019-01-06T10:01:26.996Z,1022.69
2019-01-06T10:02:26.983Z,1022.73
2019-01-06T10:03:26.971Z,1022.70
2019-01-06T10:04:34.858Z,1022.76
2019-01-06T10:05:27.968Z,1022.73
2019-01-06T10:06:26.935Z,1022.73
2019-01-06T10:07:26.932Z,1022.70
2019-01-06T10:08:26.927Z,1022.70
2019-01-06T10:09:26.943Z,1022.72
2019-01-06T10:10:26.948Z,1022.69
2019-01-06T10:11:26.896Z,1022.74
2019-01-06T10:12:26.878Z,1022.74
2019-01-06T10:13:26.860Z,1022.77
2019-01-06T10:14:26.849Z,1022.74
2019-01-06T10:15:26.884Z,1022.78
2019-01-06T10:16:26.834Z,1022.77
2019-01-06T10:17:26.851Z,1022.74
2019-01-06T10:18:26.818Z,1022.72
2019-01-06T10:19:26.816Z,1022.79
2019-01-06T10:20:26.823Z,1022.73
2019-01-06T10:21:26.792Z,1022.78
2019-01-06T10:22:26.769Z,1022.79
2019-01-06T10:23:26.754Z,1022.77
2019-01-06T10:24:26.744Z,1022.75
2019-01-06T10:25:26.732Z,1022.75
2019-01-06T10:26:26.749Z,1022.78
2019-01-06T10:27:26.718Z,1022.75
2019-01-06T10:28:26.704Z,1022.78
2019-01-06T10:29:26.698Z,1022.75
2019-01-06T10:30:26.684Z,1022.78
2019-01-06T10:31:26.693Z,1022.77
2019-01-06T10:32:26.662Z,1022.77
2019-01-06T10:33:26.652Z,1022.80
2019-01-06T10:34:27.659Z,1022.78
2019-01-06T10:35:26.627Z,1022.74
2019-01-06T10:36:26.644Z,1022.75
2019-01-06T10:37:26.604Z,1022.74
2019-01-06T10:38:26.594Z,1022.73
2019-01-06T10:39:26.591Z,1022.70
2019-01-06T10:40:26.580Z,1022.71
2019-01-06T10:41:26.572Z,1022.73
2019-01-06T10:42:26.606Z,1022.71
2019-01-06T10:43:26.559Z,1022.76
2019-01-06T10:44:26.529Z,1022.77
2019-01-06T10:45:26.518Z,1022.78
2019-01-06T10:46:26.531Z,1022.79
2019-01-06T10:47:26.528Z,1022.80
2019-01-06T10:48:26.498Z,1022.80
2019-01-06T10:49:26.481Z,1022.78
2019-01-06T10:50:28.303Z,1022.80
2019-01-06T10:51:26.465Z,1022.76
2019-01-06T10:52:26.473Z,1022.73
2019-01-06T10:53:26.441Z,1022.78
2019-01-06T10:54:26.432Z,1022.80
2019-01-06T10:55:26.414Z,1022.78
2019-01-06T10:56:26.406Z,1022.78
2019-01-06T10:57:26.423Z,1022.73
2019-01-06T10:58:26.383Z,1022.76
2019-01-06T10:59:26.380Z,1022.74
2019-01-06T11:00:26.375Z,1022.71
2019-01-06T11:01:26.361Z,1022.74
2019-01-06T11:02:26.380Z,1022.73
2019-01-06T11:03:26.361Z,1022.75
2019-01-06T11:04:26.320Z,1022.71
2019-01-06T11:05:26.316Z,1022.71
2019-01-06T11:06:26.302Z,1022.71
2019-01-06T11:07:26.291Z,1022.78
2019-01-06T11:08:26.287Z,1022.74
2019-01-06T11:09:26.288Z,1022.76
2019-01-06T11:10:26.256Z,1022.76
2019-01-06T11:11:26.252Z,1022.76
2019-01-06T11:12:26.310Z,1022.74
2019-01-06T11:13:26.228Z,1022.76
2019-01-06T11:14:26.268Z,1022.68
2019-01-06T11:15:26.203Z,1022.71
2019-01-06T11:16:26.194Z,1022.73
2019-01-06T11:17:26.182Z,1022.75
2019-01-06T11:18:26.170Z,1022.79
2019-01-06T11:19:26.208Z,1022.74
2019-01-06T11:20:26.156Z,1022.78
2019-01-06T11:21:26.142Z,1022.75
2019-01-06T11:22:26.129Z,1022.75
2019-01-06T11:23:26.124Z,1022.73
2019-01-06T11:24:26.138Z,1022.73
2019-01-06T11:25:26.127Z,1022.68
2019-01-06T11:26:26.093Z,1022.63
2019-01-06T11:27:26.078Z,1022.64
2019-01-06T11:28:26.067Z,1022.61
2019-01-06T11:29:26.080Z,1022.60
2019-01-06T11:30:26.080Z,1022.62
2019-01-06T11:31:26.041Z,1022.61
2019-01-06T11:32:26.034Z,1022.61
2019-01-06T11:33:26.022Z,1022.64
2019-01-06T11:34:26.010Z,1022.66
2019-01-06T11:35:25.996Z,1022.67
2019-01-06T11:36:26.066Z,1022.70
2019-01-06T11:37:25.980Z,1022.65
2019-01-06T11:38:25.965Z,1022.65
2019-01-06T11:39:25.952Z,1022.64
2019-01-06T11:40:25.943Z,1022.66
2019-01-06T11:41:25.951Z,1022.66
2019-01-06T11:42:25.917Z,1022.58
2019-01-06T11:43:25.913Z,1022.63
2019-01-06T11:44:25.903Z,1022.57
2019-01-06T11:45:25.896Z,1022.62
2019-01-06T11:46:25.906Z,1022.62
2019-01-06T11:47:25.890Z,1022.62
2019-01-06T11:48:25.855Z,1022.61
2019-01-06T11:49:25.851Z,1022.63
2019-01-06T11:50:25.833Z,1022.61
2019-01-06T11:51:25.832Z,1022.62
2019-01-06T11:52:25.848Z,1022.62
2019-01-06T11:53:25.803Z,1022.63
2019-01-06T11:54:25.792Z,1022.67
2019-01-06T11:55:25.786Z,1022.64
2019-01-06T11:56:25.802Z,1022.65
2019-01-06T11:57:25.793Z,1022.71
2019-01-06T11:58:25.756Z,1022.68
2019-01-06T11:59:25.742Z,1022.72
2019-01-06T12:00:25.733Z,1022.70
2019-01-06T12:01:25.716Z,1022.71
2019-01-06T12:02:25.730Z,1022.69
2019-01-06T12:03:25.716Z,1022.65
2019-01-06T12:04:25.705Z,1022.62
2019-01-06T12:05:25.688Z,1022.65
2019-01-06T12:06:25.671Z,1022.72